Time,TemperatureF,DewpointF,PressureIn,WindDirection,WindDirectionDegrees,WindSpeedMPH,WindSpeedGustMPH,Humidity,HourlyPrecipIn,Conditions,Clouds,dailyrainin,SoftwareType,DateUTC
2013-07-07 00:10:00,72.3,72.0,30.00,SW,225,0.0,-999.0,99,-99.99,,,0.27,Acu-Link.com,2013-07-07 04:10:00,
2013-07-07 00:25:00,72.1,71.8,30.01,SW,225,0.0,-999.0,99,-99.99,,,0.27,Acu-Link.com,2013-07-07 04:25:00,
2013-07-07 00:41:00,72.0,71.7,29.99,West,270,0.0,-999.0,99,-99.99,,,0.27,Acu-Link.com,2013-07-07 04:41:00,
2013-07-07 00:56:00,72.0,71.7,30.00,SW,225,0.0,-999.0,99,-99.99,,,0.27,Acu-Link.com,2013-07-07 04:56:00,
2013-07-07 01:11:00,72.0,71.7,30.00,SW,225,0.0,-999.0,99,-99.99,,,0.00,Acu-Link.com,2013-07-07 05:11:00,
2013-07-07 01:26:00,71.8,71.5,29.99,SW,225,0.0,-999.0,99,-99.99,,,0.00,Acu-Link.com,2013-07-07 05:26:00,
2013-07-07 01:41:00,71.8,71.5,29.99,SW,225,0.0,-999.0,99,-99.99,,,0.00,Acu-Link.com,2013-07-07 05:41:00,
2013-07-07 01:56:00,71.6,71.3,29.99,SSW,202,0.0,-999.0,99,-99.99,,,0.00,Acu-Link.com,2013-07-07 05:56:00,
2013-07-07 02:11:00,71.6,71.3,29.98,SSW,202,0.0,-999.0,99,-99.99,,,0.00,Acu-Link.com,2013-07-07 06:11:00,
2013-07-07 02:26:00,71.6,71.3,29.98,SW,225,0.0,-999.0,99,-99.99,,,0.00,Acu-Link.com,2013-07-07 06:26:00,
2013-07-07 02:41:00,71.4,71.1,29.98,SSW,202,0.0,-999.0,99,-99.99,,,0.00,Acu-Link.com,2013-07-07 06:41:00,
2013-07-07 02:57:00,71.2,70.9,29.97,SSW,202,0.0,-999.0,99,-99.99,,,0.00,Acu-Link.com,2013-07-07 06:57:00,
2013-07-07 03:12:00,71.1,70.8,29.98,SSW,202,0.0,-999.0,99,-99.99,,,0.00,Acu-Link.com,2013-07-07 07:12:00,
2013-07-07 03:27:00,70.7,70.4,29.96,South,180,0.0,-999.0,99,-99.99,,,0.00,Acu-Link.com,2013-07-07 07:27:00,
2013-07-07 03:42:00,70.5,70.2,29.97,South,180,0.0,-999.0,99,-99.99,,,0.00,Acu-Link.com,2013-07-07 07:42:00,
2013-07-07 03:57:00,70.5,70.2,29.96,South,180,0.0,-999.0,99,-99.99,,,0.00,Acu-Link.com,2013-07-07 07:57:00,
2013-07-07 04:13:00,70.3,70.0,29.97,South,180,0.0,-999.0,99,-99.99,,,0.00,Acu-Link.com,2013-07-07 08:13:00,
2013-07-07 04:28:00,70.3,70.0,29.97,South,180,0.0,-999.0,99,-99.99,,,0.00,Acu-Link.com,2013-07-07 08:28:00,
2013-07-07 04:43:00,70.3,70.0,29.97,South,180,0.0,-999.0,99,-99.99,,,0.00,Acu-Link.com,2013-07-07 08:43:00,
2013-07-07 04:58:00,70.5,70.2,29.97,South,180,0.0,-999.0,99,-99.99,,,0.00,Acu-Link.com,2013-07-07 08:58:00,
2013-07-07 05:13:00,71.2,70.9,29.97,South,180,0.0,-999.0,99,-99.99,,,0.00,Acu-Link.com,2013-07-07 09:13:00,
2013-07-07 05:29:00,71.6,71.3,29.97,SSE,157,1.1,-999.0,99,-99.99,,,0.00,Acu-Link.com,2013-07-07 09:29:00,
2013-07-07 05:44:00,71.8,71.5,29.98,SSE,157,1.1,-999.0,99,-99.99,,,0.00,Acu-Link.com,2013-07-07 09:44:00,
2013-07-07 05:59:00,72.0,71.7,29.97,South,180,0.0,-999.0,99,-99.99,,,0.00,Acu-Link.com,2013-07-07 09:59:00,
2013-07-07 06:14:00,72.0,71.7,29.98,East,90,0.0,-999.0,99,-99.99,,,0.00,Acu-Link.com,2013-07-07 10:14:00,
2013-07-07 06:29:00,72.0,71.7,29.98,East,90,0.0,-999.0,99,-99.99,,,0.00,Acu-Link.com,2013-07-07 10:29:00,
2013-07-07 06:44:00,72.0,71.7,29.97,East,90,0.0,-999.0,99,-99.99,,,0.00,Acu-Link.com,2013-07-07 10:44:00,
2013-07-07 07:00:00,72.0,71.7,29.98,East,90,0.0,-999.0,99,-99.99,,,0.00,Acu-Link.com,2013-07-07 11:00:00,
2013-07-07 07:15:00,72.1,71.8,29.98,East,90,0.0,-999.0,99,-99.99,,,0.00,Acu-Link.com,2013-07-07 11:15:00,
2013-07-07 07:30:00,72.3,72.0,29.99,SSE,157,0.0,-999.0,99,-99.99,,,0.00,Acu-Link.com,2013-07-07 11:30:00,
2013-07-07 07:45:00,72.7,72.4,29.98,NE,45,1.7,-999.0,99,-99.99,,,0.00,Acu-Link.com,2013-07-07 11:45:00,
2013-07-07 08:00:00,73.0,72.7,29.99,SSE,157,0.0,-999.0,99,-99.99,,,0.00,Acu-Link.com,2013-07-07 12:00:00,
2013-07-07 08:15:00,73.2,72.9,29.99,ENE,67,0.0,-999.0,99,-99.99,,,0.00,Acu-Link.com,2013-07-07 12:15:00,
2013-07-07 08:30:00,73.6,73.3,30.00,SSW,202,0.0,-999.0,99,-99.99,,,0.00,Acu-Link.com,2013-07-07 12:30:00,
2013-07-07 08:45:00,73.6,73.3,29.99,SSE,157,1.1,-999.0,99,-99.99,,,0.00,Acu-Link.com,2013-07-07 12:45:00,
2013-07-07 09:00:00,74.1,73.8,30.00,SSE,157,0.0,-999.0,99,-99.99,,,0.00,Acu-Link.com,2013-07-07 13:00:00,
2013-07-07 09:15:00,74.3,74.0,30.00,ESE,112,0.0,-999.0,99,-99.99,,,0.00,Acu-Link.com,2013-07-07 13:15:00,
2013-07-07 09:31:00,74.5,73.9,30.00,ENE,67,2.2,-999.0,98,-99.99,,,0.00,Acu-Link.com,2013-07-07 13:31:00,
2013-07-07 09:46:00,74.8,74.2,30.00,WNW,292,1.1,-999.0,98,-99.99,,,0.00,Acu-Link.com,2013-07-07 13:46:00,
2013-07-07 10:01:00,75.6,74.7,30.00,NNW,337,0.0,-999.0,97,-99.99,,,0.00,Acu-Link.com,2013-07-07 14:01:00,
2013-07-07 10:16:00,75.9,75.0,29.99,ESE,112,0.0,-999.0,97,-99.99,,,0.00,Acu-Link.com,2013-07-07 14:16:00,
2013-07-07 10:31:00,76.3,75.4,29.99,SSE,157,0.0,-999.0,97,-99.99,,,0.00,Acu-Link.com,2013-07-07 14:31:00,
2013-07-07 10:46:00,77.2,76.0,29.99,West,270,1.7,-999.0,96,-99.99,,,0.00,Acu-Link.com,2013-07-07 14:46:00,
2013-07-07 11:01:00,78.1,76.2,30.00,SSE,157,1.1,-999.0,94,-99.99,,,0.00,Acu-Link.com,2013-07-07 15:01:00,
2013-07-07 11:16:00,78.6,76.7,29.99,West,270,1.7,-999.0,94,-99.99,,,0.00,Acu-Link.com,2013-07-07 15:16:00,
2013-07-07 11:31:00,78.3,76.1,30.00,SSW,202,1.7,-999.0,93,-99.99,,,0.00,Acu-Link.com,2013-07-07 15:31:00,
2013-07-07 11:47:00,77.7,76.1,29.98,SSW,202,0.0,-999.0,95,-99.99,,,0.00,Acu-Link.com,2013-07-07 15:47:00,
2013-07-07 12:02:00,78.6,76.4,29.99,ESE,112,1.1,-999.0,93,-99.99,,,0.00,Acu-Link.com,2013-07-07 16:02:00,
2013-07-07 12:17:00,79.2,76.7,29.99,West,270,1.7,-999.0,92,-99.99,,,0.00,Acu-Link.com,2013-07-07 16:17:00,
2013-07-07 12:32:00,79.0,76.5,29.98,ENE,67,0.0,-999.0,92,-99.99,,,0.00,Acu-Link.com,2013-07-07 16:32:00,
2013-07-07 12:47:00,79.7,76.5,29.98,South,180,1.1,-999.0,90,-99.99,,,0.00,Acu-Link.com,2013-07-07 16:47:00,
2013-07-07 13:02:00,81.9,78.0,29.98,North,0,2.2,-999.0,88,-99.99,,,0.00,Acu-Link.com,2013-07-07 17:02:00,
2013-07-07 13:17:00,83.1,76.3,29.97,SE,135,2.7,-999.0,80,-99.99,,,0.00,Acu-Link.com,2013-07-07 17:17:00,
2013-07-07 13:32:00,82.8,76.4,29.97,South,180,1.1,-999.0,81,-99.99,,,0.00,Acu-Link.com,2013-07-07 17:32:00,
2013-07-07 13:47:00,82.8,77.1,29.96,WNW,292,0.0,-999.0,83,-99.99,,,0.00,Acu-Link.com,2013-07-07 17:47:00,
2013-07-07 14:03:00,83.5,77.0,29.96,NNW,337,1.1,-999.0,81,-99.99,,,0.00,Acu-Link.com,2013-07-07 18:03:00,
2013-07-07 14:18:00,84.2,77.0,29.96,WSW,247,2.7,-999.0,79,-99.99,,,0.00,Acu-Link.com,2013-07-07 18:18:00,
2013-07-07 14:33:00,85.8,76.9,29.95,WNW,292,2.7,-999.0,75,-99.99,,,0.00,Acu-Link.com,2013-07-07 18:33:00,
2013-07-07 14:48:00,84.9,77.3,29.93,South,180,1.1,-999.0,78,-99.99,,,0.00,Acu-Link.com,2013-07-07 18:48:00,
2013-07-07 15:03:00,87.6,77.4,29.94,SSE,157,0.0,-999.0,72,-99.99,,,0.00,Acu-Link.com,2013-07-07 19:03:00,
2013-07-07 15:18:00,83.8,77.7,29.94,SSE,157,1.7,-999.0,82,-99.99,,,0.00,Acu-Link.com,2013-07-07 19:18:00,
2013-07-07 15:33:00,82.4,77.8,29.92,NW,315,2.2,-999.0,86,-99.99,,,0.00,Acu-Link.com,2013-07-07 19:33:00,
2013-07-07 15:48:00,83.8,77.0,29.92,NW,315,2.2,-999.0,80,-99.99,,,0.00,Acu-Link.com,2013-07-07 19:48:00,
2013-07-07 16:03:00,84.4,77.9,29.92,South,180,1.1,-999.0,81,-99.99,,,0.00,Acu-Link.com,2013-07-07 20:03:00,
2013-07-07 16:19:00,83.7,78.3,29.90,WNW,292,0.0,-999.0,84,-99.99,,,0.00,Acu-Link.com,2013-07-07 20:19:00,
2013-07-07 16:34:00,88.2,78.4,29.90,ESE,112,1.1,-999.0,73,-99.99,,,0.00,Acu-Link.com,2013-07-07 20:34:00,
2013-07-07 16:49:00,82.0,77.7,29.91,NNW,337,2.2,-999.0,87,-99.99,,,0.01,Acu-Link.com,2013-07-07 20:49:00,
2013-07-07 17:04:00,83.3,79.7,29.90,SSW,202,0.0,-999.0,89,-99.99,,,0.03,Acu-Link.com,2013-07-07 21:04:00,
2013-07-07 17:19:00,81.1,78.9,29.91,South,180,3.2,-999.0,93,-99.99,,,0.03,Acu-Link.com,2013-07-07 21:19:00,
2013-07-07 17:34:00,81.0,78.4,29.90,ESE,112,0.0,-999.0,92,-99.99,,,0.03,Acu-Link.com,2013-07-07 21:34:00,
2013-07-07 17:49:00,80.8,76.9,29.89,South,180,0.0,-999.0,88,-99.99,,,0.03,Acu-Link.com,2013-07-07 21:49:00,
2013-07-07 18:04:00,80.6,76.7,29.89,NE,45,2.2,-999.0,88,-99.99,,,0.03,Acu-Link.com,2013-07-07 22:04:00,
2013-07-07 18:19:00,80.2,76.3,29.89,East,90,0.0,-999.0,88,-99.99,,,0.03,Acu-Link.com,2013-07-07 22:19:00,
2013-07-07 18:35:00,79.9,76.7,29.88,NNW,337,0.0,-999.0,90,-99.99,,,0.03,Acu-Link.com,2013-07-07 22:35:00,
2013-07-07 18:50:00,80.2,77.7,29.89,SSE,157,0.0,-999.0,92,-99.99,,,0.03,Acu-Link.com,2013-07-07 22:50:00,
2013-07-07 19:05:00,80.4,77.2,29.89,West,270,0.0,-999.0,90,-99.99,,,0.03,Acu-Link.com,2013-07-07 23:05:00,
2013-07-07 19:20:00,80.4,77.2,29.90,West,270,0.0,-999.0,90,-99.99,,,0.03,Acu-Link.com,2013-07-07 23:20:00,
2013-07-07 19:35:00,80.1,77.6,29.89,South,180,0.0,-999.0,92,-99.99,,,0.03,Acu-Link.com,2013-07-07 23:35:00,
2013-07-07 19:50:00,76.6,76.0,29.93,SSE,157,2.2,-999.0,98,-99.99,,,0.09,Acu-Link.com,2013-07-07 23:50:00,
2013-07-07 20:05:00,74.3,74.0,29.93,SSE,157,2.2,-999.0,99,-99.99,,,0.37,Acu-Link.com,2013-07-08 00:05:00,
2013-07-07 20:20:00,73.2,72.9,29.93,NNW,337,0.0,-999.0,99,-99.99,,,0.50,Acu-Link.com,2013-07-08 00:20:00,
2013-07-07 20:35:00,73.0,72.7,29.93,WNW,292,0.0,-999.0,99,-99.99,,,0.50,Acu-Link.com,2013-07-08 00:35:00,
2013-07-07 20:51:00,72.9,72.6,29.93,West,270,0.0,-999.0,99,-99.99,,,0.50,Acu-Link.com,2013-07-08 00:51:00,
2013-07-07 21:06:00,72.7,72.4,29.92,South,180,0.0,-999.0,99,-99.99,,,0.50,Acu-Link.com,2013-07-08 01:06:00,
2013-07-07 21:21:00,72.7,72.4,29.92,SSE,157,0.0,-999.0,99,-99.99,,,0.50,Acu-Link.com,2013-07-08 01:21:00,
2013-07-07 21:36:00,72.9,72.6,29.93,ENE,67,0.0,-999.0,99,-99.99,,,0.50,Acu-Link.com,2013-07-08 01:36:00,
2013-07-07 21:51:00,72.9,72.6,29.94,ENE,67,0.0,-999.0,99,-99.99,,,0.50,Acu-Link.com,2013-07-08 01:51:00,
2013-07-07 22:06:00,72.9,72.6,29.95,ENE,67,0.0,-999.0,99,-99.99,,,0.50,Acu-Link.com,2013-07-08 02:06:00,
2013-07-07 22:21:00,73.0,72.7,29.96,ENE,67,0.0,-999.0,99,-99.99,,,0.50,Acu-Link.com,2013-07-08 02:21:00,
2013-07-07 22:36:00,72.9,72.6,29.96,SSW,202,0.0,-999.0,99,-99.99,,,0.50,Acu-Link.com,2013-07-08 02:36:00,
2013-07-07 22:51:00,72.7,72.4,29.96,SSW,202,0.0,-999.0,99,-99.99,,,0.50,Acu-Link.com,2013-07-08 02:51:00,
2013-07-07 23:06:00,72.7,72.4,29.96,SSE,157,0.0,-999.0,99,-99.99,,,0.50,Acu-Link.com,2013-07-08 03:06:00,
2013-07-07 23:22:00,72.7,72.4,29.96,SSE,157,0.0,-999.0,99,-99.99,,,0.50,Acu-Link.com,2013-07-08 03:22:00,
2013-07-07 23:37:00,72.5,72.2,29.95,SSE,157,0.0,-999.0,99,-99.99,,,0.50,Acu-Link.com,2013-07-08 03:37:00,
2013-07-07 23:52:00,72.7,72.4,29.95,SSE,157,0.0,-999.0,99,-99.99,,,0.50,Acu-Link.com,2013-07-08 03:52:00,